Time,TemperatureF,DewpointF,PressureIn,WindDirection,WindDirectionDegrees,WindSpeedMPH,WindSpeedGustMPH,Humidity,HourlyPrecipIn,Conditions,Clouds,dailyrainin,SoftwareType,DateUTC
2013-04-30 00:11:00,45.0,30.0,30.15,WSW,250,7.0,-999.0,56,-99.99,,,-99.99,,2013-04-30 07:11:00,
2013-04-30 00:21:00,45.0,30.0,30.15,WSW,250,7.0,-999.0,56,-99.99,,,-99.99,,2013-04-30 07:21:00,
2013-04-30 00:31:00,45.0,30.0,30.15,WSW,250,7.0,-999.0,56,-99.99,,,-99.99,,2013-04-30 07:31:00,
2013-04-30 00:41:00,43.0,30.0,30.15,WNW,290,3.0,-999.0,60,-99.99,,,-99.99,,2013-04-30 07:41:00,
2013-04-30 00:52:00,43.0,30.0,30.15,WNW,290,3.0,-999.0,60,-99.99,,,-99.99,,2013-04-30 07:52:00,
2013-04-30 01:11:00,43.0,28.0,30.16,North,0,0.0,-999.0,56,-99.99,,,-99.99,,2013-04-30 08:11:00,
2013-04-30 01:21:00,43.0,28.0,30.16,North,0,0.0,-999.0,56,-99.99,,,-99.99,,2013-04-30 08:21:00,
2013-04-30 01:32:00,43.0,28.0,30.16,North,0,0.0,-999.0,56,-99.99,,,-99.99,,2013-04-30 08:32:00,
2013-04-30 01:42:00,43.0,27.0,30.17,West,260,6.0,-999.0,52,-99.99,,,-99.99,,2013-04-30 08:42:00,
2013-04-30 01:52:00,43.0,27.0,30.17,West,260,6.0,-999.0,52,-99.99,,,-99.99,,2013-04-30 08:52:00,
2013-04-30 02:01:00,43.0,27.0,30.17,West,260,6.0,-999.0,52,-99.99,,,-99.99,,2013-04-30 09:01:00,
2013-04-30 02:11:00,43.0,27.0,30.17,West,260,6.0,-999.0,52,-99.99,,,-99.99,,2013-04-30 09:11:00,
2013-04-30 03:41:00,43.0,28.0,30.19,North,0,0.0,-999.0,56,-99.99,,,-99.99,,2013-04-30 10:41:00,
2013-04-30 03:52:00,43.0,28.0,30.19,North,0,0.0,-999.0,56,-99.99,,,-99.99,,2013-04-30 10:52:00,
2013-04-30 04:42:00,43.0,30.0,30.20,SW,230,5.0,-999.0,60,-99.99,,,-99.99,,2013-04-30 11:42:00,
2013-04-30 04:51:00,43.0,30.0,30.20,SW,230,5.0,-999.0,60,-99.99,,,-99.99,,2013-04-30 11:51:00,
2013-04-30 05:01:00,43.0,30.0,30.20,SW,230,5.0,-999.0,60,-99.99,,,-99.99,,2013-04-30 12:01:00,
2013-04-30 05:11:00,43.0,30.0,30.20,SW,230,5.0,-999.0,60,-99.99,,,-99.99,,2013-04-30 12:11:00,
2013-04-30 06:41:00,43.0,32.0,30.22,WNW,290,7.0,-999.0,65,-99.99,,,-99.99,,2013-04-30 13:41:00,
2013-04-30 06:52:00,43.0,32.0,30.22,WNW,290,7.0,-999.0,65,-99.99,,,-99.99,,2013-04-30 13:52:00,
2013-04-30 07:02:00,43.0,32.0,30.22,WNW,290,7.0,-999.0,65,-99.99,,,-99.99,,2013-04-30 14:02:00,
2013-04-30 07:11:00,43.0,32.0,30.22,WNW,290,7.0,-999.0,65,-99.99,,,-99.99,,2013-04-30 14:11:00,
2013-04-30 09:42:00,45.0,34.0,30.26,WNW,300,5.0,-999.0,65,-99.99,,,-99.99,,2013-04-30 16:42:00,
2013-04-30 09:52:00,45.0,34.0,30.26,WNW,300,5.0,-999.0,65,-99.99,,,-99.99,,2013-04-30 16:52:00,
2013-04-30 10:12:00,46.0,32.0,30.26,WNW,300,7.0,-999.0,56,-99.99,,,-99.99,,2013-04-30 17:12:00,
2013-04-30 10:22:00,46.0,32.0,30.26,WNW,300,7.0,-999.0,56,-99.99,,,-99.99,,2013-04-30 17:22:00,
2013-04-30 10:32:00,46.0,32.0,30.26,WNW,300,7.0,-999.0,56,-99.99,,,-99.99,,2013-04-30 17:32:00,
2013-04-30 11:11:00,46.0,30.0,30.27,WNW,300,10.0,16.0,52,-99.99,,,-99.99,,2013-04-30 18:11:00,
2013-04-30 11:22:00,46.0,30.0,30.27,WNW,300,10.0,16.0,52,-99.99,,,-99.99,,2013-04-30 18:22:00,
2013-04-30 11:32:00,46.0,30.0,30.27,WNW,300,10.0,16.0,52,-99.99,,,-99.99,,2013-04-30 18:32:00,
2013-04-30 11:42:00,48.0,32.0,30.28,West,280,8.0,17.0,53,-99.99,,,-99.99,,2013-04-30 18:42:00,
2013-04-30 11:52:00,48.0,32.0,30.28,West,280,8.0,17.0,53,-99.99,,,-99.99,,2013-04-30 18:52:00,
2013-04-30 12:01:00,48.0,32.0,30.28,West,280,8.0,17.0,53,-99.99,,,-99.99,,2013-04-30 19:01:00,
2013-04-30 12:11:00,45.0,34.0,30.29,WNW,290,9.0,-999.0,65,-99.99,,,-99.99,,2013-04-30 19:11:00,
2013-04-30 12:21:00,45.0,34.0,30.29,WNW,290,9.0,-999.0,65,-99.99,,,-99.99,,2013-04-30 19:21:00,
2013-04-30 12:32:00,45.0,34.0,30.29,WNW,290,9.0,-999.0,65,-99.99,,,-99.99,,2013-04-30 19:32:00,
2013-04-30 13:11:00,50.0,32.0,30.29,WNW,300,7.0,-999.0,49,-99.99,,,-99.99,,2013-04-30 20:11:00,
2013-04-30 13:21:00,50.0,32.0,30.29,WNW,300,7.0,-999.0,49,-99.99,,,-99.99,,2013-04-30 20:21:00,
2013-04-30 13:32:00,50.0,32.0,30.29,WNW,300,7.0,-999.0,49,-99.99,,,-99.99,,2013-04-30 20:32:00,
2013-04-30 13:42:00,50.0,28.0,30.29,West,280,10.0,17.0,43,-99.99,,,-99.99,,2013-04-30 20:42:00,
2013-04-30 13:52:00,50.0,28.0,30.29,West,280,10.0,17.0,43,-99.99,,,-99.99,,2013-04-30 20:52:00,
2013-04-30 14:11:00,50.0,28.0,30.29,WNW,300,10.0,18.0,43,-99.99,,,-99.99,,2013-04-30 21:11:00,
2013-04-30 14:22:00,50.0,28.0,30.29,WNW,300,10.0,18.0,43,-99.99,,,-99.99,,2013-04-30 21:22:00,
2013-04-30 14:32:00,50.0,28.0,30.29,WNW,300,10.0,18.0,43,-99.99,,,-99.99,,2013-04-30 21:32:00,
2013-04-30 14:42:00,52.0,30.0,30.30,West,280,7.0,-999.0,43,-99.99,,,-99.99,,2013-04-30 21:42:00,
2013-04-30 14:53:00,52.0,30.0,30.30,West,280,7.0,-999.0,43,-99.99,,,-99.99,,2013-04-30 21:53:00,
2013-04-30 15:02:00,52.0,30.0,30.30,West,280,7.0,-999.0,43,-99.99,,,-99.99,,2013-04-30 22:02:00,
2013-04-30 15:12:00,52.0,30.0,30.30,West,280,7.0,-999.0,43,-99.99,,,-99.99,,2013-04-30 22:12:00,
2013-04-30 16:11:00,52.0,28.0,30.30,SW,230,7.0,17.0,40,-99.99,,,-99.99,,2013-04-30 23:11:00,
2013-04-30 16:21:00,52.0,28.0,30.30,SW,230,7.0,17.0,40,-99.99,,,-99.99,,2013-04-30 23:21:00,
2013-04-30 16:32:00,52.0,28.0,30.30,SW,230,7.0,17.0,40,-99.99,,,-99.99,,2013-04-30 23:32:00,
2013-04-30 16:42:00,55.0,30.0,30.30,West,280,7.0,18.0,37,-99.99,,,-99.99,,2013-04-30 23:42:00,
2013-04-30 16:52:00,55.0,30.0,30.30,West,280,7.0,18.0,37,-99.99,,,-99.99,,2013-04-30 23:52:00,
2013-04-30 17:11:00,54.0,28.0,30.30,West,260,7.0,-999.0,37,-99.99,,,-99.99,,2013-05-01 00:11:00,
2013-04-30 17:21:00,54.0,28.0,30.30,West,260,7.0,-999.0,37,-99.99,,,-99.99,,2013-05-01 00:21:00,
2013-04-30 17:32:00,54.0,28.0,30.30,West,260,7.0,-999.0,37,-99.99,,,-99.99,,2013-05-01 00:32:00,
2013-04-30 17:42:00,52.0,28.0,30.30,West,260,3.0,16.0,40,-99.99,,,-99.99,,2013-05-01 00:42:00,
2013-04-30 17:51:00,52.0,28.0,30.30,West,260,3.0,16.0,40,-99.99,,,-99.99,,2013-05-01 00:51:00,
2013-04-30 18:11:00,54.0,30.0,30.31,WNW,290,5.0,-999.0,40,-99.99,,,-99.99,,2013-05-01 01:11:00,
2013-04-30 18:21:00,54.0,30.0,30.31,WNW,290,5.0,-999.0,40,-99.99,,,-99.99,,2013-05-01 01:21:00,
2013-04-30 18:31:00,54.0,30.0,30.31,WNW,290,5.0,-999.0,40,-99.99,,,-99.99,,2013-05-01 01:31:00,
2013-04-30 19:11:00,52.0,28.0,30.32,West,270,7.0,-999.0,40,-99.99,,,-99.99,,2013-05-01 02:11:00,
2013-04-30 19:21:00,52.0,28.0,30.32,West,270,7.0,-999.0,40,-99.99,,,-99.99,,2013-05-01 02:21:00,
2013-04-30 19:32:00,52.0,28.0,30.32,West,270,7.0,-999.0,40,-99.99,,,-99.99,,2013-05-01 02:32:00,
2013-04-30 19:42:00,52.0,30.0,30.32,North,0,0.0,-999.0,43,-99.99,,,-99.99,,2013-05-01 02:42:00,
2013-04-30 19:51:00,52.0,30.0,30.32,North,0,0.0,-999.0,43,-99.99,,,-99.99,,2013-05-01 02:51:00,
2013-04-30 20:11:00,50.0,30.0,30.33,North,0,0.0,-999.0,46,-99.99,,,-99.99,,2013-05-01 03:11:00,
2013-04-30 20:21:00,50.0,30.0,30.33,North,0,0.0,-999.0,46,-99.99,,,-99.99,,2013-05-01 03:21:00,
2013-04-30 20:32:00,50.0,30.0,30.33,North,0,0.0,-999.0,46,-99.99,,,-99.99,,2013-05-01 03:32:00,
2013-04-30 20:43:00,48.0,30.0,30.35,SW,230,6.0,-999.0,49,-99.99,,,-99.99,,2013-05-01 03:43:00,
2013-04-30 20:53:00,48.0,30.0,30.35,SW,230,6.0,-999.0,49,-99.99,,,-99.99,,2013-05-01 03:53:00,
2013-04-30 21:03:00,48.0,30.0,30.35,SW,230,6.0,-999.0,49,-99.99,,,-99.99,,2013-05-01 04:03:00,
2013-04-30 21:12:00,48.0,30.0,30.36,SW,220,6.0,-999.0,49,-99.99,,,-99.99,,2013-05-01 04:12:00,
2013-04-30 21:22:00,48.0,30.0,30.36,SW,220,6.0,-999.0,49,-99.99,,,-99.99,,2013-05-01 04:22:00,
2013-04-30 21:32:00,48.0,30.0,30.36,SW,220,6.0,-999.0,49,-99.99,,,-99.99,,2013-05-01 04:32:00,
2013-04-30 21:42:00,46.0,32.0,30.37,SW,220,8.0,-999.0,56,-99.99,,,-99.99,,2013-05-01 04:42:00,
2013-04-30 21:52:00,46.0,32.0,30.37,SW,220,8.0,-999.0,56,-99.99,,,-99.99,,2013-05-01 04:52:00,
2013-04-30 22:11:00,46.0,32.0,30.39,SW,230,7.0,-999.0,56,-99.99,,,-99.99,,2013-05-01 05:11:00,
2013-04-30 22:21:00,46.0,32.0,30.39,SW,230,7.0,-999.0,56,-99.99,,,-99.99,,2013-05-01 05:21:00,
2013-04-30 22:32:00,46.0,32.0,30.39,SW,230,7.0,-999.0,56,-99.99,,,-99.99,,2013-05-01 05:32:00,
2013-04-30 22:41:00,46.0,32.0,30.39,SW,230,3.0,-999.0,56,-99.99,,,-99.99,,2013-05-01 05:41:00,
2013-04-30 22:52:00,46.0,32.0,30.39,SW,230,3.0,-999.0,56,-99.99,,,-99.99,,2013-05-01 05:52:00,
2013-04-30 23:11:00,41.0,32.0,30.40,North,0,0.0,-999.0,70,-99.99,,,-99.99,,2013-05-01 06:11:00,
2013-04-30 23:22:00,41.0,32.0,30.40,North,0,0.0,-999.0,70,-99.99,,,-99.99,,2013-05-01 06:22:00,
2013-04-30 23:32:00,41.0,32.0,30.40,North,0,0.0,-999.0,70,-99.99,,,-99.99,,2013-05-01 06:32:00,
2013-04-30 23:42:00,41.0,32.0,30.40,SSW,200,3.0,-999.0,70,-99.99,,,-99.99,,2013-05-01 06:42:00,
2013-04-30 23:51:00,41.0,32.0,30.40,SSW,200,3.0,-999.0,70,-99.99,,,-99.99,,2013-05-01 06:51:00,